sensor_id;sensor_type;location;lat;lon;timestamp;P1;durP1;ratioP1;P2;durP2;ratioP2
1122;SDS011;548;48.778;9.252;2022-08-19T00:01:12;26.20;;;24.50;;
1122;SDS011;548;48.778;9.252;2022-08-19T00:03:40;27.60;;;25.60;;
1122;SDS011;548;48.778;9.252;2022-08-19T00:06:06;26.10;;;24.20;;
1122;SDS011;548;48.778;9.252;2022-08-19T00:08:33;27.57;;;25.57;;
1122;SDS011;548;48.778;9.252;2022-08-19T00:11:00;26.60;;;24.80;;
1122;SDS011;548;48.778;9.252;2022-08-19T00:13:27;25.43;;;23.40;;
1122;SDS011;548;48.778;9.252;2022-08-19T00:15:54;26.87;;;24.83;;
1122;SDS011;548;48.778;9.252;2022-08-19T00:18:21;26.60;;;24.60;;
1122;SDS011;548;48.778;9.252;2022-08-19T00:20:49;26.20;;;24.37;;
1122;SDS011;548;48.778;9.252;2022-08-19T00:23:15;26.97;;;25.10;;
1122;SDS011;548;48.778;9.252;2022-08-19T00:25:42;27.10;;;25.10;;
1122;SDS011;548;48.778;9.252;2022-08-19T00:28:09;28.33;;;26.40;;
1122;SDS011;548;48.778;9.252;2022-08-19T00:30:36;26.40;;;24.50;;
1122;SDS011;548;48.778;9.252;2022-08-19T00:33:03;25.80;;;24.10;;
1122;SDS011;548;48.778;9.252;2022-08-19T00:35:29;26.80;;;24.67;;
1122;SDS011;548;48.778;9.252;2022-08-19T00:37:58;26.10;;;24.20;;
1122;SDS011;548;48.778;9.252;2022-08-19T00:40:25;25.67;;;23.87;;
1122;SDS011;548;48.778;9.252;2022-08-19T00:42:52;25.67;;;23.97;;
1122;SDS011;548;48.778;9.252;2022-08-19T00:45:20;26.87;;;24.77;;
1122;SDS011;548;48.778;9.252;2022-08-19T00:47:49;27.90;;;26.00;;
1122;SDS011;548;48.778;9.252;2022-08-19T00:50:17;27.40;;;25.33;;
1122;SDS011;548;48.778;9.252;2022-08-19T00:52:46;27.23;;;25.30;;
1122;SDS011;548;48.778;9.252;2022-08-19T00:55:18;26.60;;;24.53;;
1122;SDS011;548;48.778;9.252;2022-08-19T00:57:47;26.10;;;24.13;;
1122;SDS011;548;48.778;9.252;2022-08-19T01:00:31;27.87;;;25.67;;
1122;SDS011;548;48.778;9.252;2022-08-19T01:03:01;27.97;;;25.83;;
1122;SDS011;548;48.778;9.252;2022-08-19T01:05:28;27.30;;;25.10;;
1122;SDS011;548;48.778;9.252;2022-08-19T01:07:56;26.30;;;24.20;;
1122;SDS011;548;48.778;9.252;2022-08-19T01:10:26;27.13;;;25.23;;
1122;SDS011;548;48.778;9.252;2022-08-19T01:12:57;27.33;;;25.30;;
1122;SDS011;548;48.778;9.252;2022-08-19T01:15:26;27.17;;;25.30;;
1122;SDS011;548;48.778;9.252;2022-08-19T01:17:55;28.10;;;26.10;;
1122;SDS011;548;48.778;9.252;2022-08-19T01:20:25;27.77;;;25.87;;
1122;SDS011;548;48.778;9.252;2022-08-19T01:22:54;27.03;;;25.20;;
1122;SDS011;548;48.778;9.252;2022-08-19T01:25:24;26.70;;;24.67;;
1122;SDS011;548;48.778;9.252;2022-08-19T01:27:54;28.43;;;26.13;;
1122;SDS011;548;48.778;9.252;2022-08-19T01:30:23;25.40;;;23.53;;
1122;SDS011;548;48.778;9.252;2022-08-19T01:32:51;27.63;;;25.63;;
1122;SDS011;548;48.778;9.252;2022-08-19T01:35:19;27.63;;;25.70;;
1122;SDS011;548;48.778;9.252;2022-08-19T01:37:50;26.63;;;24.73;;
1122;SDS011;548;48.778;9.252;2022-08-19T01:40:21;29.30;;;27.13;;
1122;SDS011;548;48.778;9.252;2022-08-19T01:42:51;28.83;;;26.57;;
1122;SDS011;548;48.778;9.252;2022-08-19T01:45:18;27.47;;;25.23;;
1122;SDS011;548;48.778;9.252;2022-08-19T01:47:46;28.70;;;26.60;;
1122;SDS011;548;48.778;9.252;2022-08-19T01:50:14;28.53;;;26.53;;
1122;SDS011;548;48.778;9.252;2022-08-19T01:52:41;29.00;;;26.90;;
1122;SDS011;548;48.778;9.252;2022-08-19T01:55:10;27.00;;;24.97;;
1122;SDS011;548;48.778;9.252;2022-08-19T01:57:41;28.60;;;26.27;;
1122;SDS011;548;48.778;9.252;2022-08-19T02:00:13;28.70;;;26.70;;
1122;SDS011;548;48.778;9.252;2022-08-19T02:02:42;31.53;;;28.73;;
1122;SDS011;548;48.778;9.252;2022-08-19T02:05:09;28.47;;;26.37;;
1122;SDS011;548;48.778;9.252;2022-08-19T02:07:37;29.60;;;27.40;;
1122;SDS011;548;48.778;9.252;2022-08-19T02:10:06;31.93;;;29.37;;
1122;SDS011;548;48.778;9.252;2022-08-19T02:12:35;29.57;;;27.27;;
1122;SDS011;548;48.778;9.252;2022-08-19T02:15:04;28.73;;;26.70;;
1122;SDS011;548;48.778;9.252;2022-08-19T02:17:32;27.83;;;25.83;;
1122;SDS011;548;48.778;9.252;2022-08-19T02:19:59;30.43;;;28.13;;
1122;SDS011;548;48.778;9.252;2022-08-19T02:22:26;30.20;;;27.90;;
1122;SDS011;548;48.778;9.252;2022-08-19T02:24:53;29.90;;;27.50;;
1122;SDS011;548;48.778;9.252;2022-08-19T02:27:20;31.17;;;28.67;;
1122;SDS011;548;48.778;9.252;2022-08-19T02:29:47;30.03;;;27.83;;
1122;SDS011;548;48.778;9.252;2022-08-19T02:32:16;30.60;;;28.17;;
1122;SDS011;548;48.778;9.252;2022-08-19T02:34:44;31.27;;;28.83;;
1122;SDS011;548;48.778;9.252;2022-08-19T02:37:11;29.50;;;27.10;;
1122;SDS011;548;48.778;9.252;2022-08-19T02:39:52;32.53;;;29.97;;
1122;SDS011;548;48.778;9.252;2022-08-19T02:42:18;34.27;;;31.30;;
1122;SDS011;548;48.778;9.252;2022-08-19T02:44:45;29.93;;;27.63;;
1122;SDS011;548;48.778;9.252;2022-08-19T02:47:12;32.20;;;29.40;;
1122;SDS011;548;48.778;9.252;2022-08-19T02:49:41;31.97;;;29.30;;
1122;SDS011;548;48.778;9.252;2022-08-19T02:52:08;33.70;;;31.00;;
1122;SDS011;548;48.778;9.252;2022-08-19T02:54:36;32.57;;;29.90;;
1122;SDS011;548;48.778;9.252;2022-08-19T02:57:03;34.73;;;31.93;;
1122;SDS011;548;48.778;9.252;2022-08-19T02:59:30;32.67;;;30.10;;
1122;SDS011;548;48.778;9.252;2022-08-19T03:01:57;35.40;;;32.60;;
1122;SDS011;548;48.778;9.252;2022-08-19T03:04:24;33.13;;;30.60;;
1122;SDS011;548;48.778;9.252;2022-08-19T03:06:52;33.87;;;31.17;;
1122;SDS011;548;48.778;9.252;2022-08-19T03:09:19;33.83;;;31.00;;
1122;SDS011;548;48.778;9.252;2022-08-19T03:11:47;33.50;;;31.00;;
1122;SDS011;548;48.778;9.252;2022-08-19T03:14:13;35.83;;;32.90;;
1122;SDS011;548;48.778;9.252;2022-08-19T03:16:43;35.43;;;32.67;;
1122;SDS011;548;48.778;9.252;2022-08-19T03:19:12;38.33;;;35.03;;
1122;SDS011;548;48.778;9.252;2022-08-19T03:21:38;33.53;;;30.83;;
1122;SDS011;548;48.778;9.252;2022-08-19T03:24:08;34.40;;;31.67;;
1122;SDS011;548;48.778;9.252;2022-08-19T03:26:38;33.23;;;30.63;;
1122;SDS011;548;48.778;9.252;2022-08-19T03:29:05;34.00;;;31.20;;
1122;SDS011;548;48.778;9.252;2022-08-19T03:31:33;35.07;;;32.10;;
1122;SDS011;548;48.778;9.252;2022-08-19T03:34:00;36.13;;;33.23;;
1122;SDS011;548;48.778;9.252;2022-08-19T03:36:27;33.00;;;30.43;;
1122;SDS011;548;48.778;9.252;2022-08-19T03:38:54;35.37;;;32.67;;
1122;SDS011;548;48.778;9.252;2022-08-19T03:41:24;38.03;;;34.70;;
1122;SDS011;548;48.778;9.252;2022-08-19T03:43:52;37.40;;;34.60;;
1122;SDS011;548;48.778;9.252;2022-08-19T03:46:23;36.40;;;33.60;;
1122;SDS011;548;48.778;9.252;2022-08-19T03:48:51;36.57;;;33.67;;
1122;SDS011;548;48.778;9.252;2022-08-19T03:51:20;39.27;;;35.97;;
1122;SDS011;548;48.778;9.252;2022-08-19T03:53:50;39.20;;;35.97;;
1122;SDS011;548;48.778;9.252;2022-08-19T03:56:17;39.27;;;35.70;;
1122;SDS011;548;48.778;9.252;2022-08-19T03:58:45;40.87;;;36.77;;
1122;SDS011;548;48.778;9.252;2022-08-19T04:01:16;35.60;;;32.87;;
1122;SDS011;548;48.778;9.252;2022-08-19T04:03:44;36.60;;;33.70;;
1122;SDS011;548;48.778;9.252;2022-08-19T04:06:12;37.33;;;34.60;;
1122;SDS011;548;48.778;9.252;2022-08-19T04:08:39;36.30;;;33.10;;
1122;SDS011;548;48.778;9.252;2022-08-19T04:11:07;38.40;;;34.97;;
1122;SDS011;548;48.778;9.252;2022-08-19T04:13:34;37.93;;;34.73;;
1122;SDS011;548;48.778;9.252;2022-08-19T04:16:02;38.57;;;35.23;;
1122;SDS011;548;48.778;9.252;2022-08-19T04:18:29;39.07;;;35.63;;
1122;SDS011;548;48.778;9.252;2022-08-19T04:20:56;38.50;;;35.50;;
1122;SDS011;548;48.778;9.252;2022-08-19T04:23:23;39.43;;;36.20;;
1122;SDS011;548;48.778;9.252;2022-08-19T04:25:49;41.83;;;38.53;;
1122;SDS011;548;48.778;9.252;2022-08-19T04:28:16;38.13;;;34.70;;
1122;SDS011;548;48.778;9.252;2022-08-19T04:30:44;39.47;;;36.37;;
1122;SDS011;548;48.778;9.252;2022-08-19T04:33:15;38.17;;;35.23;;
1122;SDS011;548;48.778;9.252;2022-08-19T04:35:45;39.30;;;36.20;;
1122;SDS011;548;48.778;9.252;2022-08-19T04:38:14;40.07;;;36.77;;
1122;SDS011;548;48.778;9.252;2022-08-19T04:40:41;37.67;;;34.40;;
1122;SDS011;548;48.778;9.252;2022-08-19T04:43:27;39.43;;;36.23;;
1122;SDS011;548;48.778;9.252;2022-08-19T04:45:54;39.50;;;36.10;;
1122;SDS011;548;48.778;9.252;2022-08-19T04:48:22;38.90;;;35.57;;
1122;SDS011;548;48.778;9.252;2022-08-19T04:50:51;39.30;;;35.73;;
1122;SDS011;548;48.778;9.252;2022-08-19T04:53:22;42.53;;;38.80;;
1122;SDS011;548;48.778;9.252;2022-08-19T04:55:49;41.30;;;37.70;;
1122;SDS011;548;48.778;9.252;2022-08-19T04:58:16;40.27;;;36.83;;
1122;SDS011;548;48.778;9.252;2022-08-19T05:00:43;40.70;;;37.47;;
1122;SDS011;548;48.778;9.252;2022-08-19T05:03:09;42.33;;;38.53;;
1122;SDS011;548;48.778;9.252;2022-08-19T05:05:39;38.23;;;35.23;;
1122;SDS011;548;48.778;9.252;2022-08-19T05:08:07;39.20;;;35.90;;
1122;SDS011;548;48.778;9.252;2022-08-19T05:10:34;40.57;;;37.07;;
1122;SDS011;548;48.778;9.252;2022-08-19T05:13:01;41.33;;;37.77;;
1122;SDS011;548;48.778;9.252;2022-08-19T05:15:28;39.63;;;36.33;;
1122;SDS011;548;48.778;9.252;2022-08-19T05:17:55;37.73;;;34.67;;
1122;SDS011;548;48.778;9.252;2022-08-19T05:20:41;39.37;;;36.27;;
1122;SDS011;548;48.778;9.252;2022-08-19T05:23:25;35.77;;;32.60;;
1122;SDS011;548;48.778;9.252;2022-08-19T05:25:52;36.17;;;33.47;;
1122;SDS011;548;48.778;9.252;2022-08-19T05:28:19;39.17;;;35.60;;
1122;SDS011;548;48.778;9.252;2022-08-19T05:30:46;42.20;;;38.80;;
1122;SDS011;548;48.778;9.252;2022-08-19T05:33:13;38.47;;;35.30;;
1122;SDS011;548;48.778;9.252;2022-08-19T05:35:41;37.80;;;34.50;;
1122;SDS011;548;48.778;9.252;2022-08-19T05:38:08;37.47;;;34.67;;
1122;SDS011;548;48.778;9.252;2022-08-19T05:40:36;38.77;;;35.77;;
1122;SDS011;548;48.778;9.252;2022-08-19T05:43:05;40.13;;;36.57;;
1122;SDS011;548;48.778;9.252;2022-08-19T05:45:37;39.23;;;36.10;;
1122;SDS011;548;48.778;9.252;2022-08-19T05:48:04;38.50;;;35.60;;
1122;SDS011;548;48.778;9.252;2022-08-19T05:50:31;38.50;;;35.50;;
1122;SDS011;548;48.778;9.252;2022-08-19T05:52:59;40.20;;;36.97;;
1122;SDS011;548;48.778;9.252;2022-08-19T05:55:26;39.47;;;35.90;;
1122;SDS011;548;48.778;9.252;2022-08-19T05:57:52;38.23;;;35.07;;
1122;SDS011;548;48.778;9.252;2022-08-19T06:00:19;37.40;;;34.30;;
1122;SDS011;548;48.778;9.252;2022-08-19T06:02:46;36.43;;;33.77;;
1122;SDS011;548;48.778;9.252;2022-08-19T06:05:13;40.33;;;37.13;;
1122;SDS011;548;48.778;9.252;2022-08-19T06:07:39;44.57;;;41.00;;
1122;SDS011;548;48.778;9.252;2022-08-19T06:10:10;50.47;;;46.77;;
1122;SDS011;548;48.778;9.252;2022-08-19T06:12:37;54.97;;;50.57;;
1122;SDS011;548;48.778;9.252;2022-08-19T06:15:05;57.13;;;52.47;;
1122;SDS011;548;48.778;9.252;2022-08-19T06:17:33;60.33;;;54.70;;
1122;SDS011;548;48.778;9.252;2022-08-19T06:20:01;61.43;;;56.47;;
1122;SDS011;548;48.778;9.252;2022-08-19T06:22:27;63.80;;;58.53;;
1122;SDS011;548;48.778;9.252;2022-08-19T06:24:54;64.00;;;58.60;;
1122;SDS011;548;48.778;9.252;2022-08-19T06:27:23;62.93;;;57.47;;
1122;SDS011;548;48.778;9.252;2022-08-19T06:29:50;62.00;;;57.00;;
1122;SDS011;548;48.778;9.252;2022-08-19T06:34:48;62.10;;;57.10;;
1122;SDS011;548;48.778;9.252;2022-08-19T06:37:17;64.30;;;58.90;;
1122;SDS011;548;48.778;9.252;2022-08-19T06:39:45;63.23;;;58.30;;
1122;SDS011;548;48.778;9.252;2022-08-19T06:42:12;65.73;;;60.17;;
1122;SDS011;548;48.778;9.252;2022-08-19T06:44:42;60.50;;;55.73;;
1122;SDS011;548;48.778;9.252;2022-08-19T06:47:12;57.67;;;53.07;;
1122;SDS011;548;48.778;9.252;2022-08-19T06:49:40;58.33;;;53.60;;
1122;SDS011;548;48.778;9.252;2022-08-19T06:52:07;56.50;;;51.90;;
1122;SDS011;548;48.778;9.252;2022-08-19T06:54:36;56.73;;;52.10;;
1122;SDS011;548;48.778;9.252;2022-08-19T06:57:04;52.03;;;47.93;;
1122;SDS011;548;48.778;9.252;2022-08-19T06:59:31;51.00;;;46.47;;
1122;SDS011;548;48.778;9.252;2022-08-19T07:02:02;47.43;;;43.17;;
1122;SDS011;548;48.778;9.252;2022-08-19T07:04:31;47.40;;;43.20;;
1122;SDS011;548;48.778;9.252;2022-08-19T07:07:04;45.47;;;41.63;;
1122;SDS011;548;48.778;9.252;2022-08-19T07:09:35;44.10;;;40.30;;
1122;SDS011;548;48.778;9.252;2022-08-19T07:12:03;43.90;;;40.10;;
1122;SDS011;548;48.778;9.252;2022-08-19T07:14:31;44.47;;;41.00;;
1122;SDS011;548;48.778;9.252;2022-08-19T07:17:04;44.33;;;40.90;;
1122;SDS011;548;48.778;9.252;2022-08-19T07:19:32;43.57;;;40.10;;
1122;SDS011;548;48.778;9.252;2022-08-19T07:22:00;45.90;;;42.13;;
1122;SDS011;548;48.778;9.252;2022-08-19T07:24:28;43.47;;;39.83;;
1122;SDS011;548;48.778;9.252;2022-08-19T07:26:57;45.03;;;41.50;;
1122;SDS011;548;48.778;9.252;2022-08-19T07:29:28;45.80;;;42.13;;
1122;SDS011;548;48.778;9.252;2022-08-19T07:31:56;47.17;;;43.20;;
1122;SDS011;548;48.778;9.252;2022-08-19T07:34:25;52.60;;;48.10;;
1122;SDS011;548;48.778;9.252;2022-08-19T07:36:52;49.40;;;45.30;;
1122;SDS011;548;48.778;9.252;2022-08-19T07:39:20;51.70;;;47.33;;
1122;SDS011;548;48.778;9.252;2022-08-19T07:41:48;52.53;;;48.40;;
1122;SDS011;548;48.778;9.252;2022-08-19T07:44:16;56.87;;;52.17;;
1122;SDS011;548;48.778;9.252;2022-08-19T07:46:45;53.40;;;49.07;;
1122;SDS011;548;48.778;9.252;2022-08-19T07:49:15;55.33;;;51.00;;
1122;SDS011;548;48.778;9.252;2022-08-19T07:51:45;59.83;;;55.50;;
1122;SDS011;548;48.778;9.252;2022-08-19T07:54:14;60.73;;;55.90;;
1122;SDS011;548;48.778;9.252;2022-08-19T07:56:41;60.00;;;55.30;;
1122;SDS011;548;48.778;9.252;2022-08-19T07:59:08;63.30;;;57.90;;
1122;SDS011;548;48.778;9.252;2022-08-19T08:01:35;60.67;;;55.90;;
1122;SDS011;548;48.778;9.252;2022-08-19T08:04:05;62.47;;;56.77;;
1122;SDS011;548;48.778;9.252;2022-08-19T08:06:51;64.07;;;58.70;;
1122;SDS011;548;48.778;9.252;2022-08-19T08:09:37;62.03;;;57.20;;
1122;SDS011;548;48.778;9.252;2022-08-19T08:12:06;59.07;;;54.47;;
1122;SDS011;548;48.778;9.252;2022-08-19T08:14:37;61.00;;;56.20;;
1122;SDS011;548;48.778;9.252;2022-08-19T08:17:07;59.87;;;55.27;;
1122;SDS011;548;48.778;9.252;2022-08-19T08:19:35;59.20;;;54.40;;
1122;SDS011;548;48.778;9.252;2022-08-19T08:22:04;56.70;;;52.53;;
1122;SDS011;548;48.778;9.252;2022-08-19T08:24:32;58.17;;;54.10;;
1122;SDS011;548;48.778;9.252;2022-08-19T08:27:00;58.50;;;53.83;;
1122;SDS011;548;48.778;9.252;2022-08-19T08:29:29;57.00;;;52.43;;
1122;SDS011;548;48.778;9.252;2022-08-19T08:31:57;55.50;;;51.00;;
1122;SDS011;548;48.778;9.252;2022-08-19T08:34:23;59.10;;;54.60;;
1122;SDS011;548;48.778;9.252;2022-08-19T08:36:50;60.40;;;55.40;;
1122;SDS011;548;48.778;9.252;2022-08-19T08:39:19;61.93;;;56.90;;
1122;SDS011;548;48.778;9.252;2022-08-19T08:41:47;58.10;;;53.40;;
1122;SDS011;548;48.778;9.252;2022-08-19T08:44:20;60.07;;;55.47;;
1122;SDS011;548;48.778;9.252;2022-08-19T08:46:49;62.30;;;57.30;;
1122;SDS011;548;48.778;9.252;2022-08-19T08:49:23;62.60;;;57.60;;
1122;SDS011;548;48.778;9.252;2022-08-19T08:51:58;62.57;;;57.47;;
1122;SDS011;548;48.778;9.252;2022-08-19T08:54:30;64.27;;;59.03;;
1122;SDS011;548;48.778;9.252;2022-08-19T08:57:00;60.90;;;56.00;;
1122;SDS011;548;48.778;9.252;2022-08-19T08:59:33;64.07;;;59.37;;
1122;SDS011;548;48.778;9.252;2022-08-19T09:02:02;64.37;;;59.77;;
1122;SDS011;548;48.778;9.252;2022-08-19T09:04:29;55.30;;;51.50;;
1122;SDS011;548;48.778;9.252;2022-08-19T09:07:07;45.10;;;41.17;;
1122;SDS011;548;48.778;9.252;2022-08-19T09:09:46;45.20;;;41.70;;
1122;SDS011;548;48.778;9.252;2022-08-19T09:12:16;42.63;;;39.33;;
1122;SDS011;548;48.778;9.252;2022-08-19T09:14:48;40.10;;;37.10;;
1122;SDS011;548;48.778;9.252;2022-08-19T09:17:20;41.37;;;37.97;;
1122;SDS011;548;48.778;9.252;2022-08-19T09:19:57;39.00;;;35.97;;
1122;SDS011;548;48.778;9.252;2022-08-19T09:22:29;47.47;;;44.10;;
1122;SDS011;548;48.778;9.252;2022-08-19T09:24:57;50.60;;;47.00;;
1122;SDS011;548;48.778;9.252;2022-08-19T09:27:24;50.10;;;46.40;;
1122;SDS011;548;48.778;9.252;2022-08-19T09:29:53;53.17;;;49.37;;
1122;SDS011;548;48.778;9.252;2022-08-19T09:32:20;52.27;;;48.50;;
1122;SDS011;548;48.778;9.252;2022-08-19T09:34:47;55.50;;;51.30;;
1122;SDS011;548;48.778;9.252;2022-08-19T09:37:14;49.90;;;46.40;;
1122;SDS011;548;48.778;9.252;2022-08-19T09:39:41;56.47;;;52.10;;
1122;SDS011;548;48.778;9.252;2022-08-19T09:42:09;59.80;;;55.20;;
1122;SDS011;548;48.778;9.252;2022-08-19T09:44:38;57.37;;;52.90;;
1122;SDS011;548;48.778;9.252;2022-08-19T09:47:05;59.67;;;54.97;;
1122;SDS011;548;48.778;9.252;2022-08-19T09:49:32;60.50;;;56.00;;
1122;SDS011;548;48.778;9.252;2022-08-19T09:51:59;60.23;;;55.43;;
1122;SDS011;548;48.778;9.252;2022-08-19T09:54:26;63.60;;;58.47;;
1122;SDS011;548;48.778;9.252;2022-08-19T09:56:53;62.37;;;57.23;;
1122;SDS011;548;48.778;9.252;2022-08-19T09:59:22;60.20;;;55.30;;
1122;SDS011;548;48.778;9.252;2022-08-19T10:01:48;60.07;;;54.67;;
1122;SDS011;548;48.778;9.252;2022-08-19T10:04:15;63.03;;;57.73;;
1122;SDS011;548;48.778;9.252;2022-08-19T10:06:42;65.67;;;60.47;;
1122;SDS011;548;48.778;9.252;2022-08-19T10:09:09;65.83;;;60.40;;
1122;SDS011;548;48.778;9.252;2022-08-19T10:11:36;67.60;;;62.10;;
1122;SDS011;548;48.778;9.252;2022-08-19T10:14:06;68.03;;;62.43;;
1122;SDS011;548;48.778;9.252;2022-08-19T10:16:36;64.70;;;59.27;;
1122;SDS011;548;48.778;9.252;2022-08-19T10:19:04;65.20;;;59.60;;
1122;SDS011;548;48.778;9.252;2022-08-19T10:21:31;67.57;;;61.37;;
1122;SDS011;548;48.778;9.252;2022-08-19T10:24:00;65.77;;;60.37;;
1122;SDS011;548;48.778;9.252;2022-08-19T10:26:29;66.53;;;61.13;;
1122;SDS011;548;48.778;9.252;2022-08-19T10:28:57;68.40;;;62.60;;
1122;SDS011;548;48.778;9.252;2022-08-19T10:31:29;65.70;;;60.40;;
1122;SDS011;548;48.778;9.252;2022-08-19T10:33:58;62.47;;;57.27;;
1122;SDS011;548;48.778;9.252;2022-08-19T10:36:27;64.47;;;58.97;;
1122;SDS011;548;48.778;9.252;2022-08-19T10:38:57;66.27;;;60.67;;
1122;SDS011;548;48.778;9.252;2022-08-19T10:41:27;67.47;;;62.00;;
1122;SDS011;548;48.778;9.252;2022-08-19T10:43:56;68.53;;;63.03;;
1122;SDS011;548;48.778;9.252;2022-08-19T10:46:25;72.70;;;66.87;;
1122;SDS011;548;48.778;9.252;2022-08-19T10:48:54;71.70;;;65.60;;
1122;SDS011;548;48.778;9.252;2022-08-19T10:51:22;74.20;;;68.30;;
1122;SDS011;548;48.778;9.252;2022-08-19T10:54:06;68.33;;;62.23;;
1122;SDS011;548;48.778;9.252;2022-08-19T10:56:33;75.23;;;68.97;;
1122;SDS011;548;48.778;9.252;2022-08-19T10:59:18;70.20;;;64.30;;
1122;SDS011;548;48.778;9.252;2022-08-19T11:01:46;72.07;;;65.30;;
1122;SDS011;548;48.778;9.252;2022-08-19T11:04:14;71.60;;;65.30;;
1122;SDS011;548;48.778;9.252;2022-08-19T11:06:44;71.67;;;65.30;;
1122;SDS011;548;48.778;9.252;2022-08-19T11:09:12;74.53;;;67.33;;
1122;SDS011;548;48.778;9.252;2022-08-19T11:11:40;71.90;;;65.40;;
1122;SDS011;548;48.778;9.252;2022-08-19T11:14:07;70.97;;;64.60;;
1122;SDS011;548;48.778;9.252;2022-08-19T11:16:35;63.70;;;58.10;;
1122;SDS011;548;48.778;9.252;2022-08-19T11:19:03;69.17;;;63.27;;
1122;SDS011;548;48.778;9.252;2022-08-19T11:21:30;72.23;;;66.07;;
1122;SDS011;548;48.778;9.252;2022-08-19T11:24:01;69.20;;;63.00;;
1122;SDS011;548;48.778;9.252;2022-08-19T11:26:30;74.47;;;67.97;;
1122;SDS011;548;48.778;9.252;2022-08-19T11:28:58;75.00;;;68.10;;
1122;SDS011;548;48.778;9.252;2022-08-19T11:31:26;77.87;;;70.80;;
1122;SDS011;548;48.778;9.252;2022-08-19T11:33:55;76.60;;;69.57;;
1122;SDS011;548;48.778;9.252;2022-08-19T11:36:22;74.67;;;67.80;;
1122;SDS011;548;48.778;9.252;2022-08-19T11:38:49;75.40;;;68.80;;
1122;SDS011;548;48.778;9.252;2022-08-19T11:41:18;74.40;;;67.77;;
1122;SDS011;548;48.778;9.252;2022-08-19T11:43:47;73.70;;;67.17;;
1122;SDS011;548;48.778;9.252;2022-08-19T11:46:15;75.10;;;68.43;;
1122;SDS011;548;48.778;9.252;2022-08-19T11:48:42;75.90;;;68.90;;
1122;SDS011;548;48.778;9.252;2022-08-19T11:51:11;84.57;;;76.40;;
1122;SDS011;548;48.778;9.252;2022-08-19T11:53:43;72.27;;;65.47;;
1122;SDS011;548;48.778;9.252;2022-08-19T11:56:10;72.33;;;65.67;;
1122;SDS011;548;48.778;9.252;2022-08-19T11:58:39;71.73;;;65.33;;
1122;SDS011;548;48.778;9.252;2022-08-19T12:01:07;65.60;;;59.80;;
1122;SDS011;548;48.778;9.252;2022-08-19T12:03:36;71.27;;;64.90;;
1122;SDS011;548;48.778;9.252;2022-08-19T12:06:06;69.40;;;63.40;;
1122;SDS011;548;48.778;9.252;2022-08-19T12:08:34;64.70;;;59.33;;
1122;SDS011;548;48.778;9.252;2022-08-19T12:11:01;70.27;;;64.27;;
1122;SDS011;548;48.778;9.252;2022-08-19T12:13:28;70.70;;;64.40;;
1122;SDS011;548;48.778;9.252;2022-08-19T12:15:57;66.73;;;61.03;;
1122;SDS011;548;48.778;9.252;2022-08-19T12:18:24;66.53;;;60.67;;
1122;SDS011;548;48.778;9.252;2022-08-19T12:20:51;66.80;;;60.70;;
1122;SDS011;548;48.778;9.252;2022-08-19T12:23:19;68.47;;;62.43;;
1122;SDS011;548;48.778;9.252;2022-08-19T12:25:47;71.27;;;64.87;;
1122;SDS011;548;48.778;9.252;2022-08-19T12:28:16;67.23;;;60.97;;
1122;SDS011;548;48.778;9.252;2022-08-19T12:30:43;71.87;;;65.27;;
1122;SDS011;548;48.778;9.252;2022-08-19T12:33:11;70.20;;;64.00;;
1122;SDS011;548;48.778;9.252;2022-08-19T12:35:39;71.70;;;65.37;;
1122;SDS011;548;48.778;9.252;2022-08-19T12:38:06;72.20;;;66.00;;
1122;SDS011;548;48.778;9.252;2022-08-19T12:40:33;69.60;;;63.60;;
1122;SDS011;548;48.778;9.252;2022-08-19T12:43:00;67.73;;;61.93;;
1122;SDS011;548;48.778;9.252;2022-08-19T12:45:27;63.33;;;57.93;;
1122;SDS011;548;48.778;9.252;2022-08-19T12:47:54;61.77;;;56.57;;
1122;SDS011;548;48.778;9.252;2022-08-19T12:50:22;55.60;;;50.60;;
1122;SDS011;548;48.778;9.252;2022-08-19T12:52:49;52.60;;;48.00;;
1122;SDS011;548;48.778;9.252;2022-08-19T12:55:16;54.93;;;50.13;;
1122;SDS011;548;48.778;9.252;2022-08-19T12:57:44;50.87;;;46.67;;
1122;SDS011;548;48.778;9.252;2022-08-19T13:00:13;51.27;;;46.57;;
1122;SDS011;548;48.778;9.252;2022-08-19T13:02:43;48.30;;;43.60;;
1122;SDS011;548;48.778;9.252;2022-08-19T13:05:11;51.10;;;46.50;;
1122;SDS011;548;48.778;9.252;2022-08-19T13:07:42;47.27;;;43.03;;
1122;SDS011;548;48.778;9.252;2022-08-19T13:10:10;47.30;;;43.10;;
1122;SDS011;548;48.778;9.252;2022-08-19T13:12:40;47.63;;;43.17;;
1122;SDS011;548;48.778;9.252;2022-08-19T13:15:07;51.60;;;46.70;;
1122;SDS011;548;48.778;9.252;2022-08-19T13:17:36;48.60;;;44.33;;
1122;SDS011;548;48.778;9.252;2022-08-19T13:20:04;48.87;;;44.07;;
1122;SDS011;548;48.778;9.252;2022-08-19T13:22:32;48.90;;;44.40;;
1122;SDS011;548;48.778;9.252;2022-08-19T13:25:02;50.13;;;45.43;;
1122;SDS011;548;48.778;9.252;2022-08-19T13:44:18;50.93;;;46.33;;
1122;SDS011;548;48.778;9.252;2022-08-19T13:46:53;48.63;;;44.10;;
1122;SDS011;548;48.778;9.252;2022-08-19T13:50:40;50.37;;;45.67;;
1122;SDS011;548;48.778;9.252;2022-08-19T13:52:46;52.13;;;47.10;;
1122;SDS011;548;48.778;9.252;2022-08-19T13:55:13;51.87;;;46.87;;
1122;SDS011;548;48.778;9.252;2022-08-19T13:57:50;51.90;;;47.00;;
1122;SDS011;548;48.778;9.252;2022-08-19T14:00:18;55.40;;;50.00;;
1122;SDS011;548;48.778;9.252;2022-08-19T14:02:46;56.50;;;51.50;;
1122;SDS011;548;48.778;9.252;2022-08-19T14:05:14;64.20;;;58.77;;
1122;SDS011;548;48.778;9.252;2022-08-19T14:07:42;66.33;;;60.23;;
1122;SDS011;548;48.778;9.252;2022-08-19T14:10:09;68.00;;;61.93;;
1122;SDS011;548;48.778;9.252;2022-08-19T14:12:37;68.03;;;61.90;;
1122;SDS011;548;48.778;9.252;2022-08-19T14:15:06;69.67;;;63.33;;
1122;SDS011;548;48.778;9.252;2022-08-19T14:17:34;71.43;;;65.10;;
1122;SDS011;548;48.778;9.252;2022-08-19T14:20:04;70.67;;;64.10;;
1122;SDS011;548;48.778;9.252;2022-08-19T14:22:34;74.33;;;67.33;;
1122;SDS011;548;48.778;9.252;2022-08-19T14:25:02;72.47;;;65.73;;
1122;SDS011;548;48.778;9.252;2022-08-19T14:27:29;72.80;;;66.10;;
1122;SDS011;548;48.778;9.252;2022-08-19T14:29:58;71.33;;;65.03;;
1122;SDS011;548;48.778;9.252;2022-08-19T14:32:26;76.33;;;68.83;;
1122;SDS011;548;48.778;9.252;2022-08-19T14:34:53;76.37;;;69.27;;
1122;SDS011;548;48.778;9.252;2022-08-19T14:37:20;76.60;;;69.50;;
1122;SDS011;548;48.778;9.252;2022-08-19T14:39:47;74.37;;;67.80;;
1122;SDS011;548;48.778;9.252;2022-08-19T14:42:14;72.70;;;65.90;;
1122;SDS011;548;48.778;9.252;2022-08-19T14:44:41;72.07;;;65.63;;
1122;SDS011;548;48.778;9.252;2022-08-19T14:47:08;66.17;;;60.40;;
1122;SDS011;548;48.778;9.252;2022-08-19T14:49:36;68.53;;;62.60;;
1122;SDS011;548;48.778;9.252;2022-08-19T14:52:04;64.93;;;59.30;;
1122;SDS011;548;48.778;9.252;2022-08-19T14:54:31;58.20;;;52.90;;
1122;SDS011;548;48.778;9.252;2022-08-19T14:56:58;55.37;;;50.17;;
1122;SDS011;548;48.778;9.252;2022-08-19T14:59:25;51.47;;;46.67;;
1122;SDS011;548;48.778;9.252;2022-08-19T15:01:52;53.87;;;49.00;;
1122;SDS011;548;48.778;9.252;2022-08-19T15:04:18;52.53;;;47.93;;
1122;SDS011;548;48.778;9.252;2022-08-19T15:06:46;52.40;;;47.83;;
1122;SDS011;548;48.778;9.252;2022-08-19T15:09:13;48.87;;;44.73;;
1122;SDS011;548;48.778;9.252;2022-08-19T15:11:40;47.13;;;43.30;;
1122;SDS011;548;48.778;9.252;2022-08-19T15:14:07;46.97;;;42.87;;
1122;SDS011;548;48.778;9.252;2022-08-19T15:16:35;45.87;;;41.67;;
1122;SDS011;548;48.778;9.252;2022-08-19T15:19:06;43.70;;;40.10;;
1122;SDS011;548;48.778;9.252;2022-08-19T15:21:34;40.90;;;37.70;;
1122;SDS011;548;48.778;9.252;2022-08-19T15:24:02;43.43;;;39.80;;
1122;SDS011;548;48.778;9.252;2022-08-19T15:26:30;40.50;;;37.13;;
1122;SDS011;548;48.778;9.252;2022-08-19T15:28:57;42.03;;;38.63;;